sensor_id;sensor_type;location;lat;lon;timestamp;P1;durP1;ratioP1;P2;durP2;ratioP2
76729;SDS011;65653;53.106;18.046;2023-02-08T00:00:00;129.70;;;45.40;;
76729;SDS011;65653;53.106;18.046;2023-02-08T00:02:26;117.80;;;38.80;;
76729;SDS011;65653;53.106;18.046;2023-02-08T00:04:52;115.60;;;44.20;;
76729;SDS011;65653;53.106;18.046;2023-02-08T00:07:18;122.80;;;43.30;;
76729;SDS011;65653;53.106;18.046;2023-02-08T00:09:44;111.20;;;41.20;;
76729;SDS011;65653;53.106;18.046;2023-02-08T00:12:09;114.50;;;42.70;;
76729;SDS011;65653;53.106;18.046;2023-02-08T00:14:36;115.40;;;42.10;;
76729;SDS011;65653;53.106;18.046;2023-02-08T00:17:02;113.60;;;41.70;;
76729;SDS011;65653;53.106;18.046;2023-02-08T00:19:28;120.90;;;45.30;;
76729;SDS011;65653;53.106;18.046;2023-02-08T00:21:54;113.90;;;41.30;;
76729;SDS011;65653;53.106;18.046;2023-02-08T00:24:19;126.60;;;42.40;;
76729;SDS011;65653;53.106;18.046;2023-02-08T00:26:45;112.90;;;44.20;;
76729;SDS011;65653;53.106;18.046;2023-02-08T00:29:11;120.40;;;41.60;;
76729;SDS011;65653;53.106;18.046;2023-02-08T00:31:37;118.10;;;41.30;;
76729;SDS011;65653;53.106;18.046;2023-02-08T00:34:03;113.60;;;41.60;;
76729;SDS011;65653;53.106;18.046;2023-02-08T00:36:28;115.40;;;40.00;;
76729;SDS011;65653;53.106;18.046;2023-02-08T00:38:54;120.30;;;43.30;;
76729;SDS011;65653;53.106;18.046;2023-02-08T00:41:20;113.60;;;42.70;;
76729;SDS011;65653;53.106;18.046;2023-02-08T00:43:46;117.70;;;40.20;;
76729;SDS011;65653;53.106;18.046;2023-02-08T00:46:11;106.00;;;36.90;;
76729;SDS011;65653;53.106;18.046;2023-02-08T00:48:38;116.60;;;43.10;;
76729;SDS011;65653;53.106;18.046;2023-02-08T00:51:05;103.40;;;38.60;;
76729;SDS011;65653;53.106;18.046;2023-02-08T00:53:34;123.90;;;45.80;;
76729;SDS011;65653;53.106;18.046;2023-02-08T00:56:02;120.20;;;39.10;;
76729;SDS011;65653;53.106;18.046;2023-02-08T00:58:28;96.50;;;29.20;;
76729;SDS011;65653;53.106;18.046;2023-02-08T01:00:53;104.60;;;33.40;;
76729;SDS011;65653;53.106;18.046;2023-02-08T01:03:20;108.10;;;38.90;;
76729;SDS011;65653;53.106;18.046;2023-02-08T01:05:47;111.70;;;37.20;;
76729;SDS011;65653;53.106;18.046;2023-02-08T01:08:13;113.20;;;38.90;;
76729;SDS011;65653;53.106;18.046;2023-02-08T01:10:39;116.20;;;40.20;;
76729;SDS011;65653;53.106;18.046;2023-02-08T01:13:05;107.20;;;38.40;;
76729;SDS011;65653;53.106;18.046;2023-02-08T01:15:31;100.30;;;37.00;;
76729;SDS011;65653;53.106;18.046;2023-02-08T01:17:57;117.70;;;36.90;;
76729;SDS011;65653;53.106;18.046;2023-02-08T01:20:23;102.60;;;38.30;;
76729;SDS011;65653;53.106;18.046;2023-02-08T01:22:49;100.70;;;37.80;;
76729;SDS011;65653;53.106;18.046;2023-02-08T01:25:15;103.00;;;38.80;;
76729;SDS011;65653;53.106;18.046;2023-02-08T01:27:42;112.90;;;38.70;;
76729;SDS011;65653;53.106;18.046;2023-02-08T01:30:08;104.30;;;36.80;;
76729;SDS011;65653;53.106;18.046;2023-02-08T01:32:35;113.20;;;41.10;;
76729;SDS011;65653;53.106;18.046;2023-02-08T01:35:01;117.10;;;38.70;;
76729;SDS011;65653;53.106;18.046;2023-02-08T01:37:26;103.90;;;34.30;;
76729;SDS011;65653;53.106;18.046;2023-02-08T01:39:52;112.40;;;38.50;;
76729;SDS011;65653;53.106;18.046;2023-02-08T01:42:18;112.70;;;36.20;;
76729;SDS011;65653;53.106;18.046;2023-02-08T01:47:51;109.50;;;32.20;;
76729;SDS011;65653;53.106;18.046;2023-02-08T01:50:23;113.10;;;37.40;;
76729;SDS011;65653;53.106;18.046;2023-02-08T01:52:55;114.50;;;37.30;;
76729;SDS011;65653;53.106;18.046;2023-02-08T01:55:23;112.00;;;32.40;;
76729;SDS011;65653;53.106;18.046;2023-02-08T01:57:53;96.40;;;31.10;;
76729;SDS011;65653;53.106;18.046;2023-02-08T02:00:22;89.80;;;25.80;;
76729;SDS011;65653;53.106;18.046;2023-02-08T02:02:49;108.00;;;33.60;;
76729;SDS011;65653;53.106;18.046;2023-02-08T02:05:19;103.10;;;34.10;;
76729;SDS011;65653;53.106;18.046;2023-02-08T02:07:47;94.70;;;28.90;;
76729;SDS011;65653;53.106;18.046;2023-02-08T02:10:18;113.80;;;39.30;;
76729;SDS011;65653;53.106;18.046;2023-02-08T02:12:50;91.50;;;25.70;;
76729;SDS011;65653;53.106;18.046;2023-02-08T02:15:18;98.00;;;34.50;;
76729;SDS011;65653;53.106;18.046;2023-02-08T02:17:43;89.30;;;33.50;;
76729;SDS011;65653;53.106;18.046;2023-02-08T02:20:22;95.00;;;33.00;;
76729;SDS011;65653;53.106;18.046;2023-02-08T02:25:37;91.00;;;32.40;;
76729;SDS011;65653;53.106;18.046;2023-02-08T02:28:42;82.90;;;25.30;;
76729;SDS011;65653;53.106;18.046;2023-02-08T02:37:04;71.90;;;20.20;;
76729;SDS011;65653;53.106;18.046;2023-02-08T02:42:22;87.40;;;28.40;;
76729;SDS011;65653;53.106;18.046;2023-02-08T02:48:07;80.20;;;26.60;;
76729;SDS011;65653;53.106;18.046;2023-02-08T02:50:52;76.20;;;27.50;;
76729;SDS011;65653;53.106;18.046;2023-02-08T02:53:25;76.00;;;25.60;;
76729;SDS011;65653;53.106;18.046;2023-02-08T02:55:59;76.20;;;25.80;;
76729;SDS011;65653;53.106;18.046;2023-02-08T02:58:29;85.60;;;27.30;;
76729;SDS011;65653;53.106;18.046;2023-02-08T03:00:57;73.90;;;22.50;;
76729;SDS011;65653;53.106;18.046;2023-02-08T03:03:25;66.20;;;22.80;;
76729;SDS011;65653;53.106;18.046;2023-02-08T03:05:55;64.90;;;23.50;;
76729;SDS011;65653;53.106;18.046;2023-02-08T03:08:51;70.60;;;23.20;;
76729;SDS011;65653;53.106;18.046;2023-02-08T03:11:33;71.60;;;24.00;;
76729;SDS011;65653;53.106;18.046;2023-02-08T03:19:59;55.60;;;20.70;;
76729;SDS011;65653;53.106;18.046;2023-02-08T03:22:41;67.20;;;22.20;;
76729;SDS011;65653;53.106;18.046;2023-02-08T03:25:09;52.40;;;18.40;;
76729;SDS011;65653;53.106;18.046;2023-02-08T03:28:04;58.30;;;18.00;;
76729;SDS011;65653;53.106;18.046;2023-02-08T03:30:47;50.10;;;16.60;;
76729;SDS011;65653;53.106;18.046;2023-02-08T03:33:24;55.40;;;18.50;;
76729;SDS011;65653;53.106;18.046;2023-02-08T03:35:59;53.00;;;16.10;;
76729;SDS011;65653;53.106;18.046;2023-02-08T03:38:32;55.60;;;18.60;;
76729;SDS011;65653;53.106;18.046;2023-02-08T03:41:03;43.10;;;17.60;;
76729;SDS011;65653;53.106;18.046;2023-02-08T03:43:34;57.00;;;19.90;;
76729;SDS011;65653;53.106;18.046;2023-02-08T03:48:39;54.00;;;18.30;;
76729;SDS011;65653;53.106;18.046;2023-02-08T03:51:10;36.90;;;11.20;;
76729;SDS011;65653;53.106;18.046;2023-02-08T03:53:37;47.90;;;15.50;;
76729;SDS011;65653;53.106;18.046;2023-02-08T03:56:12;50.10;;;16.20;;
76729;SDS011;65653;53.106;18.046;2023-02-08T03:58:53;54.40;;;20.20;;
76729;SDS011;65653;53.106;18.046;2023-02-08T04:01:24;54.60;;;18.00;;
76729;SDS011;65653;53.106;18.046;2023-02-08T04:03:53;60.00;;;17.20;;
76729;SDS011;65653;53.106;18.046;2023-02-08T04:06:21;52.50;;;15.40;;
76729;SDS011;65653;53.106;18.046;2023-02-08T04:08:48;50.90;;;18.30;;
76729;SDS011;65653;53.106;18.046;2023-02-08T04:11:15;70.40;;;20.00;;
76729;SDS011;65653;53.106;18.046;2023-02-08T04:13:41;56.10;;;18.30;;
76729;SDS011;65653;53.106;18.046;2023-02-08T04:16:08;50.00;;;17.70;;
76729;SDS011;65653;53.106;18.046;2023-02-08T04:18:36;52.50;;;18.40;;
76729;SDS011;65653;53.106;18.046;2023-02-08T04:21:02;51.70;;;18.40;;
76729;SDS011;65653;53.106;18.046;2023-02-08T04:23:28;59.30;;;17.60;;
76729;SDS011;65653;53.106;18.046;2023-02-08T04:25:54;55.00;;;19.40;;
76729;SDS011;65653;53.106;18.046;2023-02-08T04:28:19;55.10;;;15.70;;
76729;SDS011;65653;53.106;18.046;2023-02-08T04:30:45;59.90;;;16.10;;
76729;SDS011;65653;53.106;18.046;2023-02-08T04:33:11;43.80;;;15.50;;
76729;SDS011;65653;53.106;18.046;2023-02-08T04:35:40;62.40;;;17.00;;
76729;SDS011;65653;53.106;18.046;2023-02-08T04:38:06;60.90;;;21.40;;
76729;SDS011;65653;53.106;18.046;2023-02-08T04:40:32;63.10;;;22.20;;
76729;SDS011;65653;53.106;18.046;2023-02-08T04:42:58;73.30;;;20.40;;
76729;SDS011;65653;53.106;18.046;2023-02-08T04:45:24;76.90;;;21.40;;
76729;SDS011;65653;53.106;18.046;2023-02-08T04:47:51;63.00;;;17.10;;
76729;SDS011;65653;53.106;18.046;2023-02-08T04:50:17;79.10;;;21.40;;
76729;SDS011;65653;53.106;18.046;2023-02-08T04:52:43;65.60;;;17.10;;
76729;SDS011;65653;53.106;18.046;2023-02-08T04:55:09;70.50;;;21.90;;
76729;SDS011;65653;53.106;18.046;2023-02-08T04:57:34;55.60;;;14.90;;
76729;SDS011;65653;53.106;18.046;2023-02-08T05:00:00;72.60;;;19.60;;
76729;SDS011;65653;53.106;18.046;2023-02-08T05:02:26;65.60;;;16.00;;
76729;SDS011;65653;53.106;18.046;2023-02-08T05:04:52;61.00;;;17.90;;
76729;SDS011;65653;53.106;18.046;2023-02-08T05:07:18;69.40;;;18.80;;
76729;SDS011;65653;53.106;18.046;2023-02-08T05:09:44;60.10;;;15.70;;
76729;SDS011;65653;53.106;18.046;2023-02-08T05:12:10;59.90;;;22.10;;
76729;SDS011;65653;53.106;18.046;2023-02-08T05:14:36;72.70;;;21.50;;
76729;SDS011;65653;53.106;18.046;2023-02-08T05:17:01;77.80;;;22.80;;
76729;SDS011;65653;53.106;18.046;2023-02-08T05:19:27;66.30;;;22.00;;
76729;SDS011;65653;53.106;18.046;2023-02-08T05:21:53;67.30;;;17.70;;
76729;SDS011;65653;53.106;18.046;2023-02-08T05:24:19;70.90;;;21.70;;
76729;SDS011;65653;53.106;18.046;2023-02-08T05:26:45;65.00;;;19.50;;
76729;SDS011;65653;53.106;18.046;2023-02-08T05:29:10;68.40;;;19.20;;
76729;SDS011;65653;53.106;18.046;2023-02-08T05:31:36;65.00;;;21.80;;
76729;SDS011;65653;53.106;18.046;2023-02-08T05:34:02;71.40;;;21.70;;
76729;SDS011;65653;53.106;18.046;2023-02-08T05:36:28;81.80;;;22.20;;
76729;SDS011;65653;53.106;18.046;2023-02-08T05:38:54;60.20;;;12.00;;
76729;SDS011;65653;53.106;18.046;2023-02-08T05:41:20;74.60;;;17.50;;
76729;SDS011;65653;53.106;18.046;2023-02-08T05:43:46;82.90;;;24.70;;
76729;SDS011;65653;53.106;18.046;2023-02-08T05:46:11;74.50;;;18.80;;
76729;SDS011;65653;53.106;18.046;2023-02-08T05:48:37;77.00;;;24.90;;
76729;SDS011;65653;53.106;18.046;2023-02-08T05:51:03;72.50;;;16.80;;
76729;SDS011;65653;53.106;18.046;2023-02-08T05:53:29;81.50;;;24.20;;
76729;SDS011;65653;53.106;18.046;2023-02-08T05:55:56;76.40;;;22.90;;
76729;SDS011;65653;53.106;18.046;2023-02-08T05:58:23;109.30;;;26.00;;
76729;SDS011;65653;53.106;18.046;2023-02-08T06:00:50;91.50;;;22.70;;
76729;SDS011;65653;53.106;18.046;2023-02-08T06:03:16;92.50;;;23.50;;
76729;SDS011;65653;53.106;18.046;2023-02-08T06:05:41;88.80;;;22.20;;
76729;SDS011;65653;53.106;18.046;2023-02-08T06:08:08;100.90;;;24.80;;
76729;SDS011;65653;53.106;18.046;2023-02-08T06:10:34;92.10;;;23.40;;
76729;SDS011;65653;53.106;18.046;2023-02-08T06:13:00;84.20;;;23.90;;
76729;SDS011;65653;53.106;18.046;2023-02-08T06:15:26;96.00;;;21.50;;
76729;SDS011;65653;53.106;18.046;2023-02-08T06:17:53;71.10;;;21.70;;
76729;SDS011;65653;53.106;18.046;2023-02-08T06:20:18;82.60;;;22.30;;
76729;SDS011;65653;53.106;18.046;2023-02-08T06:22:44;81.30;;;20.50;;
76729;SDS011;65653;53.106;18.046;2023-02-08T06:25:10;76.10;;;23.60;;
76729;SDS011;65653;53.106;18.046;2023-02-08T06:27:36;71.50;;;18.90;;
76729;SDS011;65653;53.106;18.046;2023-02-08T06:30:02;82.00;;;22.00;;
76729;SDS011;65653;53.106;18.046;2023-02-08T06:32:28;63.80;;;20.50;;
76729;SDS011;65653;53.106;18.046;2023-02-08T06:34:54;80.90;;;23.40;;
76729;SDS011;65653;53.106;18.046;2023-02-08T06:37:21;71.40;;;18.00;;
76729;SDS011;65653;53.106;18.046;2023-02-08T06:39:47;78.90;;;21.00;;
76729;SDS011;65653;53.106;18.046;2023-02-08T06:42:13;78.70;;;20.60;;
76729;SDS011;65653;53.106;18.046;2023-02-08T06:44:38;77.40;;;21.80;;
76729;SDS011;65653;53.106;18.046;2023-02-08T06:47:04;75.60;;;24.30;;
76729;SDS011;65653;53.106;18.046;2023-02-08T06:49:30;75.60;;;23.30;;
76729;SDS011;65653;53.106;18.046;2023-02-08T06:52:01;72.00;;;22.40;;
76729;SDS011;65653;53.106;18.046;2023-02-08T06:54:26;79.10;;;21.20;;
76729;SDS011;65653;53.106;18.046;2023-02-08T06:56:52;69.20;;;19.50;;
76729;SDS011;65653;53.106;18.046;2023-02-08T06:59:18;72.10;;;22.00;;
76729;SDS011;65653;53.106;18.046;2023-02-08T07:01:44;71.00;;;23.70;;
76729;SDS011;65653;53.106;18.046;2023-02-08T07:04:09;61.40;;;22.00;;
76729;SDS011;65653;53.106;18.046;2023-02-08T07:06:35;62.90;;;19.40;;
76729;SDS011;65653;53.106;18.046;2023-02-08T07:09:01;77.90;;;22.10;;
76729;SDS011;65653;53.106;18.046;2023-02-08T07:11:28;77.20;;;20.90;;
76729;SDS011;65653;53.106;18.046;2023-02-08T07:13:54;64.60;;;20.30;;
76729;SDS011;65653;53.106;18.046;2023-02-08T07:16:20;81.90;;;21.10;;
76729;SDS011;65653;53.106;18.046;2023-02-08T07:18:46;68.20;;;22.30;;
76729;SDS011;65653;53.106;18.046;2023-02-08T07:21:12;76.40;;;23.90;;
76729;SDS011;65653;53.106;18.046;2023-02-08T07:23:38;67.50;;;16.50;;
76729;SDS011;65653;53.106;18.046;2023-02-08T07:26:05;67.10;;;20.40;;
76729;SDS011;65653;53.106;18.046;2023-02-08T07:28:33;56.10;;;19.20;;
76729;SDS011;65653;53.106;18.046;2023-02-08T07:31:03;65.20;;;22.20;;
76729;SDS011;65653;53.106;18.046;2023-02-08T07:33:33;58.00;;;21.50;;
76729;SDS011;65653;53.106;18.046;2023-02-08T07:35:58;70.60;;;20.60;;
76729;SDS011;65653;53.106;18.046;2023-02-08T07:38:24;66.70;;;20.00;;
76729;SDS011;65653;53.106;18.046;2023-02-08T07:40:50;57.70;;;20.90;;
76729;SDS011;65653;53.106;18.046;2023-02-08T07:43:16;51.90;;;21.50;;
76729;SDS011;65653;53.106;18.046;2023-02-08T07:45:44;62.20;;;22.60;;
76729;SDS011;65653;53.106;18.046;2023-02-08T07:48:10;60.50;;;21.90;;
76729;SDS011;65653;53.106;18.046;2023-02-08T07:50:36;52.70;;;21.60;;
76729;SDS011;65653;53.106;18.046;2023-02-08T07:53:02;56.60;;;24.40;;
76729;SDS011;65653;53.106;18.046;2023-02-08T07:55:27;57.20;;;24.40;;
76729;SDS011;65653;53.106;18.046;2023-02-08T07:57:54;72.80;;;19.90;;
76729;SDS011;65653;53.106;18.046;2023-02-08T08:00:20;69.00;;;23.80;;
76729;SDS011;65653;53.106;18.046;2023-02-08T08:02:47;58.10;;;22.40;;
76729;SDS011;65653;53.106;18.046;2023-02-08T08:05:15;58.40;;;24.60;;
76729;SDS011;65653;53.106;18.046;2023-02-08T08:07:41;57.20;;;26.20;;
76729;SDS011;65653;53.106;18.046;2023-02-08T08:10:07;64.80;;;21.50;;
76729;SDS011;65653;53.106;18.046;2023-02-08T08:12:33;49.00;;;20.70;;
76729;SDS011;65653;53.106;18.046;2023-02-08T08:14:59;57.60;;;22.80;;
76729;SDS011;65653;53.106;18.046;2023-02-08T08:17:24;50.40;;;23.20;;
76729;SDS011;65653;53.106;18.046;2023-02-08T08:19:50;47.80;;;22.10;;
76729;SDS011;65653;53.106;18.046;2023-02-08T08:22:16;44.30;;;20.60;;
76729;SDS011;65653;53.106;18.046;2023-02-08T08:24:42;40.90;;;19.20;;
76729;SDS011;65653;53.106;18.046;2023-02-08T08:27:07;47.90;;;20.80;;
76729;SDS011;65653;53.106;18.046;2023-02-08T08:29:34;42.80;;;17.10;;
76729;SDS011;65653;53.106;18.046;2023-02-08T08:32:02;45.60;;;20.10;;
76729;SDS011;65653;53.106;18.046;2023-02-08T08:34:29;40.30;;;18.50;;
76729;SDS011;65653;53.106;18.046;2023-02-08T08:36:56;46.90;;;19.60;;
76729;SDS011;65653;53.106;18.046;2023-02-08T08:39:22;41.40;;;20.20;;
76729;SDS011;65653;53.106;18.046;2023-02-08T08:41:49;41.00;;;18.50;;
76729;SDS011;65653;53.106;18.046;2023-02-08T08:44:15;40.40;;;19.90;;
76729;SDS011;65653;53.106;18.046;2023-02-08T08:46:41;42.60;;;19.70;;
76729;SDS011;65653;53.106;18.046;2023-02-08T08:49:07;42.80;;;20.10;;
76729;SDS011;65653;53.106;18.046;2023-02-08T08:51:33;39.80;;;18.40;;
76729;SDS011;65653;53.106;18.046;2023-02-08T08:54:00;36.90;;;16.60;;
76729;SDS011;65653;53.106;18.046;2023-02-08T08:56:27;41.10;;;20.30;;
76729;SDS011;65653;53.106;18.046;2023-02-08T08:58:52;43.50;;;21.10;;
76729;SDS011;65653;53.106;18.046;2023-02-08T09:01:18;43.40;;;21.40;;
76729;SDS011;65653;53.106;18.046;2023-02-08T09:03:44;37.50;;;17.80;;
76729;SDS011;65653;53.106;18.046;2023-02-08T09:06:10;43.10;;;20.30;;
76729;SDS011;65653;53.106;18.046;2023-02-08T09:08:36;33.90;;;18.10;;
76729;SDS011;65653;53.106;18.046;2023-02-08T09:11:03;41.30;;;21.00;;
76729;SDS011;65653;53.106;18.046;2023-02-08T09:13:33;40.10;;;21.00;;
76729;SDS011;65653;53.106;18.046;2023-02-08T09:16:03;34.10;;;17.50;;
76729;SDS011;65653;53.106;18.046;2023-02-08T09:18:30;34.30;;;18.30;;
76729;SDS011;65653;53.106;18.046;2023-02-08T09:20:56;35.10;;;18.30;;
76729;SDS011;65653;53.106;18.046;2023-02-08T09:23:22;36.50;;;19.50;;
76729;SDS011;65653;53.106;18.046;2023-02-08T09:25:48;40.70;;;22.40;;
76729;SDS011;65653;53.106;18.046;2023-02-08T09:28:15;39.80;;;20.40;;
76729;SDS011;65653;53.106;18.046;2023-02-08T09:30:40;37.70;;;19.80;;
76729;SDS011;65653;53.106;18.046;2023-02-08T09:33:07;35.20;;;19.00;;
76729;SDS011;65653;53.106;18.046;2023-02-08T09:35:32;37.40;;;21.30;;
76729;SDS011;65653;53.106;18.046;2023-02-08T09:37:58;34.00;;;19.40;;
76729;SDS011;65653;53.106;18.046;2023-02-08T09:40:28;37.00;;;20.40;;
76729;SDS011;65653;53.106;18.046;2023-02-08T09:43:27;37.40;;;19.80;;
76729;SDS011;65653;53.106;18.046;2023-02-08T09:46:07;37.70;;;21.40;;
76729;SDS011;65653;53.106;18.046;2023-02-08T09:48:42;32.40;;;19.30;;
76729;SDS011;65653;53.106;18.046;2023-02-08T09:51:20;33.70;;;19.30;;
76729;SDS011;65653;53.106;18.046;2023-02-08T09:53:55;32.90;;;20.20;;
76729;SDS011;65653;53.106;18.046;2023-02-08T09:56:29;29.60;;;18.20;;
76729;SDS011;65653;53.106;18.046;2023-02-08T09:59:02;35.00;;;20.70;;
76729;SDS011;65653;53.106;18.046;2023-02-08T10:01:34;33.40;;;20.30;;
76729;SDS011;65653;53.106;18.046;2023-02-08T10:04:09;32.50;;;19.00;;
76729;SDS011;65653;53.106;18.046;2023-02-08T10:06:43;30.20;;;16.40;;
76729;SDS011;65653;53.106;18.046;2023-02-08T10:09:10;28.70;;;17.50;;
76729;SDS011;65653;53.106;18.046;2023-02-08T10:11:53;31.00;;;18.70;;
76729;SDS011;65653;53.106;18.046;2023-02-08T10:20:14;29.60;;;19.80;;
76729;SDS011;65653;53.106;18.046;2023-02-08T10:23:26;24.60;;;15.90;;
76729;SDS011;65653;53.106;18.046;2023-02-08T10:32:01;30.70;;;21.30;;
76729;SDS011;65653;53.106;18.046;2023-02-08T10:34:55;22.20;;;14.20;;
76729;SDS011;65653;53.106;18.046;2023-02-08T10:37:31;25.20;;;18.40;;
76729;SDS011;65653;53.106;18.046;2023-02-08T10:40:01;21.30;;;14.80;;
76729;SDS011;65653;53.106;18.046;2023-02-08T10:42:57;27.10;;;18.50;;
76729;SDS011;65653;53.106;18.046;2023-02-08T10:45:42;25.20;;;17.70;;
76729;SDS011;65653;53.106;18.046;2023-02-08T10:48:30;25.30;;;17.80;;
76729;SDS011;65653;53.106;18.046;2023-02-08T10:51:05;23.40;;;16.70;;
76729;SDS011;65653;53.106;18.046;2023-02-08T10:53:39;24.10;;;17.40;;
76729;SDS011;65653;53.106;18.046;2023-02-08T10:56:05;23.00;;;16.90;;
76729;SDS011;65653;53.106;18.046;2023-02-08T10:58:32;20.20;;;14.00;;
76729;SDS011;65653;53.106;18.046;2023-02-08T11:00:58;25.10;;;18.00;;
76729;SDS011;65653;53.106;18.046;2023-02-08T11:03:26;25.80;;;17.50;;
76729;SDS011;65653;53.106;18.046;2023-02-08T11:05:54;21.70;;;15.40;;
76729;SDS011;65653;53.106;18.046;2023-02-08T11:08:22;16.30;;;11.30;;
76729;SDS011;65653;53.106;18.046;2023-02-08T11:13:31;16.90;;;12.30;;
76729;SDS011;65653;53.106;18.046;2023-02-08T11:16:03;18.40;;;12.80;;
76729;SDS011;65653;53.106;18.046;2023-02-08T11:18:33;18.50;;;13.40;;
76729;SDS011;65653;53.106;18.046;2023-02-08T11:21:06;20.90;;;15.90;;
76729;SDS011;65653;53.106;18.046;2023-02-08T11:23:37;20.10;;;14.70;;
76729;SDS011;65653;53.106;18.046;2023-02-08T11:26:14;20.60;;;14.70;;
76729;SDS011;65653;53.106;18.046;2023-02-08T11:28:45;21.70;;;14.30;;
76729;SDS011;65653;53.106;18.046;2023-02-08T11:31:26;17.90;;;13.50;;
76729;SDS011;65653;53.106;18.046;2023-02-08T11:34:00;20.50;;;15.60;;
76729;SDS011;65653;53.106;18.046;2023-02-08T11:36:32;21.40;;;15.30;;
76729;SDS011;65653;53.106;18.046;2023-02-08T11:39:00;21.60;;;14.50;;
76729;SDS011;65653;53.106;18.046;2023-02-08T11:41:28;21.60;;;16.70;;
76729;SDS011;65653;53.106;18.046;2023-02-08T11:46:31;19.10;;;14.30;;
76729;SDS011;65653;53.106;18.046;2023-02-08T11:49:01;24.10;;;17.20;;
76729;SDS011;65653;53.106;18.046;2023-02-08T11:53:56;20.60;;;15.90;;
76729;SDS011;65653;53.106;18.046;2023-02-08T11:56:28;17.40;;;13.60;;
76729;SDS011;65653;53.106;18.046;2023-02-08T11:59:20;20.00;;;15.30;;
76729;SDS011;65653;53.106;18.046;2023-02-08T12:01:47;23.30;;;19.00;;
76729;SDS011;65653;53.106;18.046;2023-02-08T12:04:13;22.10;;;17.00;;
76729;SDS011;65653;53.106;18.046;2023-02-08T12:06:55;24.20;;;18.90;;
76729;SDS011;65653;53.106;18.046;2023-02-08T12:12:43;22.20;;;17.90;;
76729;SDS011;65653;53.106;18.046;2023-02-08T12:15:27;19.10;;;15.20;;
76729;SDS011;65653;53.106;18.046;2023-02-08T12:18:35;22.70;;;17.10;;
76729;SDS011;65653;53.106;18.046;2023-02-08T12:21:15;17.30;;;13.40;;
76729;SDS011;65653;53.106;18.046;2023-02-08T12:23:51;17.60;;;13.80;;
76729;SDS011;65653;53.106;18.046;2023-02-08T12:29:34;21.10;;;15.70;;
76729;SDS011;65653;53.106;18.046;2023-02-08T12:32:14;22.80;;;16.00;;
76729;SDS011;65653;53.106;18.046;2023-02-08T12:35:16;23.30;;;17.40;;
76729;SDS011;65653;53.106;18.046;2023-02-08T12:40:54;26.30;;;19.20;;
76729;SDS011;65653;53.106;18.046;2023-02-08T12:43:49;26.70;;;20.30;;
76729;SDS011;65653;53.106;18.046;2023-02-08T12:49:16;24.20;;;17.70;;
76729;SDS011;65653;53.106;18.046;2023-02-08T12:51:59;23.50;;;18.40;;
76729;SDS011;65653;53.106;18.046;2023-02-08T12:57:17;26.00;;;19.00;;
76729;SDS011;65653;53.106;18.046;2023-02-08T12:59:52;29.20;;;20.90;;
76729;SDS011;65653;53.106;18.046;2023-02-08T13:02:47;28.10;;;19.60;;
76729;SDS011;65653;53.106;18.046;2023-02-08T13:05:25;27.40;;;19.50;;
76729;SDS011;65653;53.106;18.046;2023-02-08T13:07:58;24.30;;;17.40;;
76729;SDS011;65653;53.106;18.046;2023-02-08T13:10:37;28.90;;;20.50;;
76729;SDS011;65653;53.106;18.046;2023-02-08T13:16:06;26.70;;;19.40;;
76729;SDS011;65653;53.106;18.046;2023-02-08T13:18:40;26.00;;;19.10;;
76729;SDS011;65653;53.106;18.046;2023-02-08T13:21:12;26.40;;;17.40;;
76729;SDS011;65653;53.106;18.046;2023-02-08T13:23:46;25.30;;;18.20;;
76729;SDS011;65653;53.106;18.046;2023-02-08T13:28:56;26.30;;;18.30;;
76729;SDS011;65653;53.106;18.046;2023-02-08T13:36:55;26.30;;;18.30;;
76729;SDS011;65653;53.106;18.046;2023-02-08T13:39:34;27.80;;;19.00;;
76729;SDS011;65653;53.106;18.046;2023-02-08T13:42:07;26.20;;;18.00;;
76729;SDS011;65653;53.106;18.046;2023-02-08T13:44:48;24.60;;;16.20;;
76729;SDS011;65653;53.106;18.046;2023-02-08T13:47:21;21.90;;;14.10;;
76729;SDS011;65653;53.106;18.046;2023-02-08T13:49:56;22.30;;;14.30;;
76729;SDS011;65653;53.106;18.046;2023-02-08T13:58:07;25.10;;;15.00;;
76729;SDS011;65653;53.106;18.046;2023-02-08T14:06:17;27.00;;;15.00;;
76729;SDS011;65653;53.106;18.046;2023-02-08T14:08:55;26.20;;;13.70;;
76729;SDS011;65653;53.106;18.046;2023-02-08T14:11:52;27.30;;;14.60;;
76729;SDS011;65653;53.106;18.046;2023-02-08T14:14:22;19.90;;;10.30;;
76729;SDS011;65653;53.106;18.046;2023-02-08T14:19:36;25.60;;;13.10;;
76729;SDS011;65653;53.106;18.046;2023-02-08T14:22:06;24.90;;;11.10;;
76729;SDS011;65653;53.106;18.046;2023-02-08T14:27:37;24.80;;;9.80;;
76729;SDS011;65653;53.106;18.046;2023-02-08T14:32:42;28.60;;;12.10;;
76729;SDS011;65653;53.106;18.046;2023-02-08T14:37:40;24.90;;;11.40;;
76729;SDS011;65653;53.106;18.046;2023-02-08T14:42:57;22.80;;;10.50;;
76729;SDS011;65653;53.106;18.046;2023-02-08T14:48:03;16.00;;;7.20;;
76729;SDS011;65653;53.106;18.046;2023-02-08T14:51:30;20.60;;;8.30;;
76729;SDS011;65653;53.106;18.046;2023-02-08T14:58:41;18.70;;;7.40;;
76729;SDS011;65653;53.106;18.046;2023-02-08T15:01:12;15.80;;;5.90;;
76729;SDS011;65653;53.106;18.046;2023-02-08T15:03:45;18.00;;;8.00;;
76729;SDS011;65653;53.106;18.046;2023-02-08T15:06:30;17.40;;;7.00;;
76729;SDS011;65653;53.106;18.046;2023-02-08T15:09:02;17.30;;;6.60;;
76729;SDS011;65653;53.106;18.046;2023-02-08T15:14:33;18.20;;;8.50;;
76729;SDS011;65653;53.106;18.046;2023-02-08T15:17:00;20.00;;;8.00;;
76729;SDS011;65653;53.106;18.046;2023-02-08T15:19:28;20.10;;;8.20;;
76729;SDS011;65653;53.106;18.046;2023-02-08T15:22:30;24.70;;;11.30;;
76729;SDS011;65653;53.106;18.046;2023-02-08T15:24:59;17.30;;;7.20;;
76729;SDS011;65653;53.106;18.046;2023-02-08T15:27:44;18.80;;;7.80;;
76729;SDS011;65653;53.106;18.046;2023-02-08T15:30:28;23.10;;;9.30;;
76729;SDS011;65653;53.106;18.046;2023-02-08T15:32:57;28.40;;;10.60;;
76729;SDS011;65653;53.106;18.046;2023-02-08T15:35:24;21.80;;;7.80;;
76729;SDS011;65653;53.106;18.046;2023-02-08T15:37:53;23.90;;;8.80;;
76729;SDS011;65653;53.106;18.046;2023-02-08T15:40:23;23.60;;;8.40;;
76729;SDS011;65653;53.106;18.046;2023-02-08T15:43:00;20.50;;;7.80;;
76729;SDS011;65653;53.106;18.046;2023-02-08T15:45:28;16.90;;;6.90;;
76729;SDS011;65653;53.106;18.046;2023-02-08T15:47:55;20.20;;;7.60;;
76729;SDS011;65653;53.106;18.046;2023-02-08T15:50:22;17.40;;;6.80;;
76729;SDS011;65653;53.106;18.046;2023-02-08T15:53:00;12.50;;;5.80;;
76729;SDS011;65653;53.106;18.046;2023-02-08T15:55:35;17.70;;;7.80;;
76729;SDS011;65653;53.106;18.046;2023-02-08T16:01:06;27.50;;;9.70;;
76729;SDS011;65653;53.106;18.046;2023-02-08T16:03:33;17.70;;;6.30;;
76729;SDS011;65653;53.106;18.046;2023-02-08T16:06:01;31.60;;;10.90;;
76729;SDS011;65653;53.106;18.046;2023-02-08T16:08:34;22.40;;;8.50;;
76729;SDS011;65653;53.106;18.046;2023-02-08T16:11:02;16.30;;;7.20;;
76729;SDS011;65653;53.106;18.046;2023-02-08T16:13:37;16.20;;;6.60;;
76729;SDS011;65653;53.106;18.046;2023-02-08T16:16:15;18.20;;;7.20;;